createdAt,value
2023-02-06T00:01:52.665Z,1.40
2023-02-06T00:04:24.769Z,1.40
2023-02-06T00:06:51.714Z,1.40
2023-02-06T00:09:20.952Z,1.40
2023-02-06T00:11:50.081Z,1.40
2023-02-06T00:14:17.036Z,1.40
2023-02-06T00:16:43.974Z,1.40
2023-02-06T00:19:15.289Z,1.40
2023-02-06T00:21:47.069Z,1.40
2023-02-06T00:24:16.109Z,1.50
2023-02-06T00:26:45.518Z,1.50
2023-02-06T00:29:14.955Z,1.50
2023-02-06T00:31:44.252Z,1.40
2023-02-06T00:34:11.290Z,1.40
2023-02-06T00:36:42.110Z,1.40
2023-02-06T00:39:13.580Z,1.50
2023-02-06T00:41:43.132Z,1.40
2023-02-06T00:44:15.778Z,1.40
2023-02-06T00:46:45.811Z,1.40
2023-02-06T00:49:12.830Z,1.40
2023-02-06T00:51:42.162Z,1.40
2023-02-06T00:54:11.612Z,1.40
2023-02-06T00:56:43.204Z,1.40
2023-02-06T00:59:12.352Z,1.40
2023-02-06T01:01:39.749Z,1.40
2023-02-06T01:04:08.873Z,1.50
2023-02-06T01:06:40.768Z,1.50
2023-02-06T01:09:12.318Z,1.50
2023-02-06T01:11:41.498Z,1.50
2023-02-06T01:14:10.611Z,1.40
2023-02-06T01:16:43.459Z,1.40
2023-02-06T01:19:12.895Z,1.40
2023-02-06T01:21:39.835Z,1.40
2023-02-06T01:24:11.347Z,1.40
2023-02-06T01:26:42.987Z,1.40
2023-02-06T01:29:17.029Z,1.50
2023-02-06T01:31:46.991Z,1.50
2023-02-06T01:34:16.178Z,1.50
2023-02-06T01:36:47.795Z,1.50
2023-02-06T01:39:19.802Z,1.50
2023-02-06T01:41:53.982Z,1.40
2023-02-06T01:44:22.650Z,1.40
2023-02-06T01:46:53.329Z,1.50
2023-02-06T01:49:30.449Z,1.50
2023-02-06T01:52:16.968Z,1.50
2023-02-06T01:54:48.883Z,1.60
2023-02-06T01:57:19.016Z,1.60
2023-02-06T01:59:47.620Z,1.60
2023-02-06T02:02:14.764Z,1.60
2023-02-06T02:04:43.781Z,1.60
2023-02-06T02:07:18.055Z,1.60
2023-02-06T02:09:47.442Z,1.60
2023-02-06T02:12:17.020Z,1.60
2023-02-06T02:14:47.062Z,1.60
2023-02-06T02:17:44.230Z,1.60
2023-02-06T02:20:23.966Z,1.60
2023-02-06T02:23:23.072Z,1.60
2023-02-06T02:26:03.563Z,1.60
2023-02-06T02:28:44.841Z,1.60
2023-02-06T02:31:26.996Z,1.70
2023-02-06T02:34:29.963Z,1.70
2023-02-06T02:37:19.672Z,1.70
2023-02-06T02:39:50.340Z,1.70
2023-02-06T02:42:43.231Z,1.70
2023-02-06T02:45:13.848Z,1.60
2023-02-06T02:47:50.069Z,1.60
2023-02-06T02:50:19.630Z,1.60
2023-02-06T02:52:46.623Z,1.60
2023-02-06T02:55:23.114Z,1.60
2023-02-06T02:57:58.717Z,1.60
2023-02-06T03:00:28.153Z,1.60
2023-02-06T03:02:55.133Z,1.60
2023-02-06T03:05:26.687Z,1.70
2023-02-06T03:08:09.182Z,1.60
2023-02-06T03:10:51.414Z,1.60
2023-02-06T03:13:34.710Z,1.50
2023-02-06T03:16:08.738Z,1.60
2023-02-06T03:18:41.335Z,1.60
2023-02-06T03:21:11.878Z,1.50
2023-02-06T03:23:45.071Z,1.50
2023-02-06T03:26:18.752Z,1.50
2023-02-06T03:28:51.353Z,1.50
2023-02-06T03:31:25.244Z,1.50
2023-02-06T03:34:30.378Z,1.50
2023-02-06T03:36:57.302Z,1.50
2023-02-06T03:39:26.520Z,1.50
2023-02-06T03:41:59.832Z,1.50
2023-02-06T03:44:34.027Z,1.50
2023-02-06T03:47:05.968Z,1.50
2023-02-06T03:49:32.915Z,1.50
2023-02-06T03:52:13.208Z,1.50
2023-02-06T03:54:43.057Z,1.50
2023-02-06T03:57:11.755Z,1.50
2023-02-06T03:59:45.628Z,1.50
2023-02-06T04:02:12.570Z,1.50
2023-02-06T04:04:40.843Z,1.50
2023-02-06T04:07:13.380Z,1.50
2023-02-06T04:09:42.970Z,1.50
2023-02-06T04:12:15.364Z,1.50
2023-02-06T04:14:43.126Z,1.50
2023-02-06T04:17:12.754Z,1.50
2023-02-06T04:19:42.766Z,1.60
2023-02-06T04:22:16.069Z,1.60
2023-02-06T04:24:45.825Z,1.60
2023-02-06T04:27:13.742Z,1.60
2023-02-06T04:29:40.707Z,1.60
2023-02-06T04:32:09.912Z,1.60
2023-02-06T04:34:40.371Z,1.60
2023-02-06T04:37:12.348Z,1.60
2023-02-06T04:39:42.393Z,1.60
2023-02-06T04:42:11.549Z,1.60
2023-02-06T04:44:42.917Z,1.60
2023-02-06T04:47:17.012Z,1.60
2023-02-06T04:49:46.461Z,1.70
2023-02-06T04:52:13.386Z,1.70
2023-02-06T04:54:44.740Z,1.70
2023-02-06T04:57:13.819Z,1.70
2023-02-06T04:59:43.103Z,1.70
2023-02-06T05:02:12.660Z,1.70
2023-02-06T05:04:42.217Z,1.70
2023-02-06T05:07:09.320Z,1.60
2023-02-06T05:09:38.574Z,1.60
2023-02-06T05:12:08.110Z,1.70
2023-02-06T05:14:37.543Z,1.70
2023-02-06T05:17:07.495Z,1.70
2023-02-06T05:19:37.579Z,1.70
2023-02-06T05:22:07.494Z,1.60
2023-02-06T05:24:36.518Z,1.60
2023-02-06T05:27:06.490Z,1.60
2023-02-06T05:29:35.699Z,1.60
2023-02-06T05:32:02.654Z,1.50
2023-02-06T05:34:31.811Z,1.50
2023-02-06T05:37:01.152Z,1.50
2023-02-06T05:39:28.219Z,1.40
2023-02-06T05:41:57.536Z,1.40
2023-02-06T05:44:24.462Z,1.40
2023-02-06T05:46:51.423Z,1.40
2023-02-06T05:49:20.600Z,1.40
2023-02-06T05:51:50.515Z,1.30
2023-02-06T05:54:18.474Z,1.30
2023-02-06T05:56:50.084Z,1.40
2023-02-06T05:59:17.059Z,1.40
2023-02-06T06:01:43.999Z,1.30
2023-02-06T06:04:11.204Z,1.20
2023-02-06T06:06:40.435Z,1.20
2023-02-06T06:09:07.400Z,1.20
2023-02-06T06:11:36.567Z,1.30
2023-02-06T06:14:05.659Z,1.30
2023-02-06T06:16:35.144Z,1.30
2023-02-06T06:19:04.489Z,1.40
2023-02-06T06:21:34.135Z,1.40
2023-02-06T06:24:01.573Z,1.40
2023-02-06T06:26:28.566Z,1.40
2023-02-06T06:28:58.822Z,1.40
2023-02-06T06:31:28.895Z,1.40
2023-02-06T06:34:00.536Z,1.40
2023-02-06T06:36:27.465Z,1.30
2023-02-06T06:38:56.534Z,1.30
2023-02-06T06:41:28.701Z,1.40
2023-02-06T06:43:57.210Z,1.40
2023-02-06T06:46:29.130Z,1.40
2023-02-06T06:48:56.122Z,1.40
2023-02-06T06:51:27.650Z,1.40
2023-02-06T06:53:54.623Z,1.40
2023-02-06T06:56:21.557Z,1.40
2023-02-06T06:58:53.128Z,1.40
2023-02-06T07:01:20.090Z,1.30
2023-02-06T07:03:48.432Z,1.30
2023-02-06T07:06:15.761Z,1.20
2023-02-06T07:08:47.466Z,1.20
2023-02-06T07:11:14.809Z,1.20
2023-02-06T07:13:42.076Z,1.20
2023-02-06T07:16:13.877Z,1.20
2023-02-06T07:18:42.941Z,1.10
2023-02-06T07:21:10.442Z,1.10
2023-02-06T07:23:41.713Z,1.00
2023-02-06T07:26:08.832Z,1.00
2023-02-06T07:28:38.355Z,1.00
2023-02-06T07:31:07.915Z,1.00
2023-02-06T07:33:35.066Z,1.00
2023-02-06T07:36:04.012Z,1.00
2023-02-06T07:38:35.596Z,1.00
2023-02-06T07:41:02.917Z,1.00
2023-02-06T07:43:32.545Z,1.00
2023-02-06T07:46:03.522Z,0.90
2023-02-06T07:48:30.676Z,0.90
2023-02-06T07:51:03.066Z,0.90
2023-02-06T07:53:30.043Z,0.80
2023-02-06T07:55:57.025Z,0.80
2023-02-06T07:58:28.605Z,0.70
2023-02-06T08:00:56.093Z,0.60
2023-02-06T08:03:23.106Z,0.60
2023-02-06T08:05:54.761Z,0.60
2023-02-06T08:08:21.688Z,0.50
2023-02-06T08:10:51.451Z,0.50
2023-02-06T08:13:20.849Z,0.50
2023-02-06T08:15:52.637Z,0.50
2023-02-06T08:18:22.087Z,0.60
2023-02-06T08:20:51.598Z,0.60
2023-02-06T08:23:20.912Z,0.60
2023-02-06T08:25:47.984Z,0.80
2023-02-06T08:28:17.103Z,0.80
2023-02-06T08:30:53.441Z,0.80
2023-02-06T08:33:20.398Z,1.00
2023-02-06T08:35:47.316Z,1.00
2023-02-06T08:38:16.750Z,1.00
2023-02-06T08:40:43.698Z,1.00
2023-02-06T08:43:10.977Z,1.00
2023-02-06T08:45:40.254Z,1.00
2023-02-06T08:48:12.159Z,1.00
2023-02-06T08:50:39.083Z,1.00
2023-02-06T08:53:08.121Z,1.10
2023-02-06T08:55:37.722Z,1.10
2023-02-06T08:58:04.915Z,1.10
2023-02-06T09:00:31.878Z,1.20
2023-02-06T09:03:01.309Z,1.30
2023-02-06T09:05:30.503Z,1.40
2023-02-06T09:07:57.766Z,1.50
2023-02-06T09:10:30.384Z,1.60
2023-02-06T09:13:02.214Z,1.70
2023-02-06T09:15:31.783Z,1.80
2023-02-06T09:18:03.541Z,1.80
2023-02-06T09:20:30.492Z,1.90
2023-02-06T09:22:57.427Z,1.90
2023-02-06T09:25:26.468Z,2.00
2023-02-06T09:27:54.154Z,2.00
2023-02-06T09:30:22.290Z,2.20
2023-02-06T09:32:51.595Z,2.30
2023-02-06T09:35:20.844Z,2.40
2023-02-06T09:37:48.032Z,2.50
2023-02-06T09:40:18.228Z,2.50
2023-02-06T09:42:49.966Z,2.50
2023-02-06T09:45:24.610Z,2.60
2023-02-06T09:48:05.097Z,2.80
2023-02-06T09:50:50.806Z,3.00
2023-02-06T09:53:40.849Z,3.10
2023-02-06T09:56:39.075Z,3.30
2023-02-06T09:59:37.755Z,3.50
2023-02-06T10:02:44.596Z,3.60
2023-02-06T10:05:32.891Z,3.70
2023-02-06T10:08:22.506Z,3.70
2023-02-06T10:10:57.235Z,3.90
2023-02-06T10:13:33.170Z,4.10
2023-02-06T10:16:12.680Z,4.40
2023-02-06T10:18:46.571Z,4.60
2023-02-06T10:21:41.438Z,4.70
2023-02-06T10:24:30.425Z,4.90
2023-02-06T10:27:04.057Z,5.00
2023-02-06T10:29:34.568Z,5.10
2023-02-06T10:32:19.648Z,5.20
2023-02-06T10:35:03.986Z,5.30
2023-02-06T10:37:36.865Z,5.50
2023-02-06T10:40:31.909Z,5.50
2023-02-06T10:43:29.365Z,5.50
2023-02-06T10:46:23.137Z,5.50
2023-02-06T10:48:50.246Z,5.60
2023-02-06T10:51:33.149Z,5.70
2023-02-06T10:54:10.714Z,5.80
2023-02-06T10:56:40.939Z,5.80
2023-02-06T10:59:11.342Z,5.80
2023-02-06T11:01:39.216Z,5.70
2023-02-06T11:04:16.058Z,5.70
2023-02-06T11:06:43.076Z,5.80
2023-02-06T11:09:12.522Z,5.90
2023-02-06T11:11:48.534Z,6.00
2023-02-06T11:14:30.889Z,6.10
2023-02-06T11:17:00.438Z,6.10
2023-02-06T11:19:31.122Z,6.10
2023-02-06T11:22:07.397Z,6.00
2023-02-06T11:24:37.237Z,6.00
2023-02-06T11:27:34.066Z,6.00
2023-02-06T11:30:08.332Z,6.10
2023-02-06T11:32:52.709Z,6.30
2023-02-06T11:35:30.444Z,6.20
2023-02-06T11:38:21.344Z,6.30
2023-02-06T11:41:02.696Z,6.60
2023-02-06T11:43:50.576Z,6.70
2023-02-06T11:46:18.690Z,6.70
2023-02-06T11:49:00.990Z,6.60
2023-02-06T11:51:45.290Z,6.40
2023-02-06T11:54:29.801Z,6.30
2023-02-06T11:57:19.548Z,6.40
2023-02-06T11:59:58.636Z,6.60
2023-02-06T12:02:29.622Z,6.60
2023-02-06T12:05:12.908Z,6.60
2023-02-06T12:07:45.931Z,6.80
2023-02-06T12:10:19.368Z,6.80
2023-02-06T12:12:49.673Z,6.80
2023-02-06T12:15:46.475Z,6.80
2023-02-06T12:18:21.720Z,6.70
2023-02-06T12:20:55.077Z,6.70
2023-02-06T12:23:22.028Z,6.70
2023-02-06T12:25:50.026Z,6.70
2023-02-06T12:28:38.081Z,6.70
2023-02-06T12:31:19.390Z,6.60
2023-02-06T12:33:49.100Z,6.60
2023-02-06T12:36:22.455Z,6.70
2023-02-06T12:39:06.764Z,6.70
2023-02-06T12:41:58.652Z,6.60
2023-02-06T12:44:49.995Z,6.60
2023-02-06T12:47:29.198Z,6.60
2023-02-06T12:50:21.872Z,6.60
2023-02-06T12:52:53.943Z,6.60
2023-02-06T12:55:40.202Z,6.70
2023-02-06T12:58:29.725Z,6.90
2023-02-06T13:01:44.040Z,6.90
2023-02-06T13:04:18.699Z,6.90
2023-02-06T13:06:54.798Z,6.90
2023-02-06T13:09:32.447Z,6.80
2023-02-06T13:12:17.250Z,6.80
2023-02-06T13:15:07.249Z,6.90
2023-02-06T13:17:35.648Z,7.00
2023-02-06T13:20:10.011Z,7.00
2023-02-06T13:22:51.977Z,7.00
2023-02-06T13:25:31.155Z,7.00
2023-02-06T13:28:01.479Z,7.10
2023-02-06T13:30:31.623Z,7.20
2023-02-06T13:33:17.981Z,7.50
2023-02-06T13:36:01.774Z,7.50
2023-02-06T13:38:34.701Z,7.40
2023-02-06T13:41:16.706Z,7.40
2023-02-06T13:43:48.577Z,7.40
2023-02-06T13:46:19.364Z,7.30
2023-02-06T13:48:46.890Z,7.30
2023-02-06T13:51:42.855Z,7.40
2023-02-06T13:54:30.212Z,7.40
2023-02-06T13:57:44.268Z,7.40
2023-02-06T14:00:25.680Z,7.40
2023-02-06T14:03:14.487Z,7.30
2023-02-06T14:06:02.837Z,7.30
2023-02-06T14:08:51.230Z,7.30
2023-02-06T14:11:38.812Z,7.40
2023-02-06T14:14:31.205Z,7.40
2023-02-06T14:17:07.602Z,7.40
2023-02-06T14:19:50.459Z,7.30
2023-02-06T14:22:44.535Z,7.40
2023-02-06T14:25:44.894Z,7.40
2023-02-06T14:28:29.041Z,7.40
2023-02-06T14:31:35.389Z,7.40
2023-02-06T14:34:08.470Z,7.40
2023-02-06T14:36:55.183Z,7.40
2023-02-06T14:39:53.120Z,7.40
2023-02-06T14:42:21.245Z,7.40
2023-02-06T14:44:54.984Z,7.40
2023-02-06T14:47:28.813Z,7.40
2023-02-06T14:49:56.702Z,7.40
2023-02-06T14:52:28.032Z,7.40
2023-02-06T14:54:55.326Z,7.30
2023-02-06T14:57:29.941Z,7.30
2023-02-06T15:00:00.472Z,7.20
2023-02-06T15:02:31.440Z,7.30
2023-02-06T15:04:58.742Z,7.20
2023-02-06T15:07:33.132Z,7.20
2023-02-06T15:10:06.816Z,7.20
2023-02-06T15:12:34.245Z,7.20
2023-02-06T15:15:16.412Z,7.20
2023-02-06T15:18:04.633Z,7.10
2023-02-06T15:20:42.532Z,7.20
2023-02-06T15:23:19.896Z,7.20
2023-02-06T15:25:58.546Z,7.20
2023-02-06T15:28:29.348Z,7.20
2023-02-06T15:30:59.426Z,7.20
2023-02-06T15:33:33.455Z,7.20
2023-02-06T15:36:06.145Z,7.20
2023-02-06T15:38:39.876Z,7.20
2023-02-06T15:41:11.195Z,7.20
2023-02-06T15:43:44.247Z,7.20
2023-02-06T15:46:13.854Z,7.10
2023-02-06T15:49:01.225Z,7.20
2023-02-06T15:51:28.163Z,7.10
2023-02-06T15:54:07.407Z,7.10
2023-02-06T15:56:37.907Z,7.00
2023-02-06T15:59:06.681Z,7.00
2023-02-06T16:01:38.793Z,7.00
2023-02-06T16:04:08.532Z,7.00
2023-02-06T16:06:36.058Z,6.90
2023-02-06T16:09:08.735Z,6.90
2023-02-06T16:11:51.424Z,6.80
2023-02-06T16:14:28.370Z,6.70
2023-02-06T16:17:00.164Z,6.70
2023-02-06T16:19:56.677Z,6.70
2023-02-06T16:22:31.134Z,6.60
2023-02-06T16:25:13.374Z,6.50
2023-02-06T16:27:45.122Z,6.30
2023-02-06T16:30:25.822Z,6.10
2023-02-06T16:32:55.550Z,6.00
2023-02-06T16:35:22.782Z,5.80
2023-02-06T16:37:49.922Z,5.70
2023-02-06T16:40:22.271Z,5.60
2023-02-06T16:42:49.447Z,5.50
2023-02-06T16:45:22.432Z,5.40
2023-02-06T16:47:49.449Z,5.30
2023-02-06T16:50:18.825Z,5.10
2023-02-06T16:52:58.748Z,5.00
2023-02-06T16:55:28.929Z,4.90
2023-02-06T16:58:01.873Z,4.70
2023-02-06T17:00:31.955Z,4.60
2023-02-06T17:03:06.778Z,4.50
2023-02-06T17:05:38.743Z,4.40
2023-02-06T17:08:25.008Z,4.30
2023-02-06T17:10:56.628Z,4.20
2023-02-06T17:13:26.047Z,4.10
2023-02-06T17:15:53.270Z,4.00
2023-02-06T17:18:23.177Z,3.90
2023-02-06T17:20:56.268Z,3.80
2023-02-06T17:23:25.741Z,3.60
2023-02-06T17:25:52.718Z,3.50
2023-02-06T17:28:20.066Z,3.50
2023-02-06T17:30:50.910Z,3.40
2023-02-06T17:33:20.677Z,3.30
2023-02-06T17:35:50.191Z,3.20
2023-02-06T17:38:17.146Z,3.10
2023-02-06T17:40:46.407Z,3.10
2023-02-06T17:43:13.454Z,3.10
2023-02-06T17:45:43.056Z,3.10
2023-02-06T17:48:10.092Z,3.10
2023-02-06T17:50:38.113Z,3.00
2023-02-06T17:53:10.384Z,2.90
2023-02-06T17:55:37.335Z,2.90
2023-02-06T17:58:07.620Z,2.90
2023-02-06T18:00:39.477Z,2.80
2023-02-06T18:03:09.625Z,2.80
2023-02-06T18:05:39.218Z,2.70
2023-02-06T18:08:08.544Z,2.60
2023-02-06T18:10:41.517Z,2.60
2023-02-06T18:13:13.633Z,2.50
2023-02-06T18:15:40.704Z,2.50
2023-02-06T18:18:12.224Z,2.50
2023-02-06T18:20:40.490Z,2.50
2023-02-06T18:23:14.037Z,2.40
2023-02-06T18:25:43.437Z,2.40
2023-02-06T18:28:14.835Z,2.40
2023-02-06T18:30:42.002Z,2.30
2023-02-06T18:33:16.248Z,2.20
2023-02-06T18:35:44.966Z,2.20
2023-02-06T18:38:15.332Z,2.10
2023-02-06T18:40:46.723Z,2.20
2023-02-06T18:43:16.414Z,2.20
2023-02-06T18:45:46.364Z,2.10
2023-02-06T18:48:13.488Z,2.00
2023-02-06T18:50:45.816Z,1.90
2023-02-06T18:53:12.773Z,1.80
2023-02-06T18:55:41.996Z,1.70
2023-02-06T18:58:11.295Z,1.60
2023-02-06T19:00:42.092Z,1.50
2023-02-06T19:03:13.379Z,1.40
2023-02-06T19:05:40.333Z,1.40
2023-02-06T19:08:11.906Z,1.30
2023-02-06T19:10:42.645Z,1.20
2023-02-06T19:13:12.088Z,1.20
2023-02-06T19:15:41.450Z,1.10
2023-02-06T19:18:09.013Z,1.10
2023-02-06T19:20:36.323Z,1.00
2023-02-06T19:23:03.489Z,1.00
2023-02-06T19:25:30.536Z,1.00
2023-02-06T19:27:57.572Z,0.90
2023-02-06T19:30:27.078Z,0.80
2023-02-06T19:32:56.487Z,0.80
2023-02-06T19:35:23.538Z,0.80
2023-02-06T19:37:55.688Z,0.70
2023-02-06T19:40:22.643Z,0.60
2023-02-06T19:42:51.692Z,0.60
2023-02-06T19:45:21.619Z,0.50
2023-02-06T19:47:51.080Z,0.50
2023-02-06T19:50:18.148Z,0.50
2023-02-06T19:52:45.098Z,0.40
2023-02-06T19:55:14.247Z,0.40
2023-02-06T19:57:43.384Z,0.30
2023-02-06T20:00:13.940Z,0.30
2023-02-06T20:02:43.649Z,0.40
2023-02-06T20:05:10.696Z,0.40
2023-02-06T20:07:40.034Z,0.50
2023-02-06T20:10:12.163Z,0.50
2023-02-06T20:12:41.480Z,0.50
2023-02-06T20:15:08.836Z,0.40
2023-02-06T20:17:37.993Z,0.40
2023-02-06T20:20:06.668Z,0.30
2023-02-06T20:22:33.977Z,0.30
2023-02-06T20:25:03.072Z,0.20
2023-02-06T20:27:33.042Z,0.20
2023-02-06T20:30:02.610Z,0.20
2023-02-06T20:32:32.164Z,0.20
2023-02-06T20:35:01.655Z,0.30
2023-02-06T20:37:28.714Z,0.50
2023-02-06T20:39:59.534Z,1.00
2023-02-06T20:42:28.465Z,1.30
2023-02-06T20:44:58.089Z,1.60
2023-02-06T20:47:25.006Z,1.90
2023-02-06T20:49:51.975Z,2.00
2023-02-06T20:52:21.876Z,2.20
2023-02-06T20:54:48.908Z,2.40
2023-02-06T20:57:22.408Z,2.50
2023-02-06T20:59:51.959Z,2.60
2023-02-06T21:02:23.496Z,2.70
2023-02-06T21:04:55.404Z,2.70
2023-02-06T21:07:24.581Z,2.80
2023-02-06T21:09:53.840Z,2.90
2023-02-06T21:12:20.806Z,2.90
2023-02-06T21:14:49.861Z,2.90
2023-02-06T21:17:16.789Z,3.00
2023-02-06T21:19:43.812Z,2.90
2023-02-06T21:22:15.928Z,3.00
2023-02-06T21:24:45.012Z,3.10
2023-02-06T21:27:14.229Z,3.10
2023-02-06T21:29:41.277Z,3.10
2023-02-06T21:32:14.518Z,3.20
2023-02-06T21:34:42.073Z,3.20
2023-02-06T21:37:11.566Z,3.30
2023-02-06T21:39:41.590Z,3.30
2023-02-06T21:42:09.448Z,3.30
2023-02-06T21:44:41.874Z,3.30
2023-02-06T21:47:10.079Z,3.20
2023-02-06T21:49:39.572Z,3.10
2023-02-06T21:52:11.176Z,3.20
2023-02-06T21:54:43.626Z,3.20
2023-02-06T21:57:12.843Z,3.10
2023-02-06T21:59:40.971Z,3.10
2023-02-06T22:02:09.505Z,3.10
2023-02-06T22:04:39.278Z,3.10
2023-02-06T22:07:08.332Z,3.10
2023-02-06T22:09:35.344Z,3.10
2023-02-06T22:12:07.090Z,3.10
2023-02-06T22:14:38.719Z,3.10
2023-02-06T22:17:07.928Z,3.00
2023-02-06T22:19:37.794Z,3.00
2023-02-06T22:22:04.752Z,2.90
2023-02-06T22:24:31.695Z,2.80
2023-02-06T22:27:05.632Z,2.80
2023-02-06T22:29:32.582Z,2.80
2023-02-06T22:32:04.496Z,2.70
2023-02-06T22:34:35.163Z,2.70
2023-02-06T22:37:02.073Z,2.50
2023-02-06T22:39:29.057Z,2.50
2023-02-06T22:42:00.681Z,2.40
2023-02-06T22:44:30.136Z,2.30
2023-02-06T22:46:57.132Z,2.20
2023-02-06T22:49:26.475Z,2.10
2023-02-06T22:51:53.449Z,2.00
2023-02-06T22:54:22.577Z,1.90
2023-02-06T22:56:49.583Z,1.80
2023-02-06T22:59:22.268Z,1.80
2023-02-06T23:01:54.619Z,1.70
2023-02-06T23:04:36.236Z,1.70
2023-02-06T23:07:05.702Z,1.60
2023-02-06T23:09:36.638Z,1.50
2023-02-06T23:12:11.416Z,1.50
2023-02-06T23:14:41.346Z,1.40
2023-02-06T23:17:10.927Z,1.40
2023-02-06T23:19:45.043Z,1.30
2023-02-06T23:22:17.084Z,1.20
2023-02-06T23:24:48.173Z,1.20
2023-02-06T23:27:15.071Z,1.10
2023-02-06T23:29:42.033Z,1.10
2023-02-06T23:32:11.229Z,1.00
2023-02-06T23:34:40.727Z,1.00
2023-02-06T23:37:09.962Z,0.90
2023-02-06T23:39:36.955Z,0.90
2023-02-06T23:42:04.059Z,0.80
2023-02-06T23:44:31.002Z,0.80
2023-02-06T23:47:00.594Z,0.70
2023-02-06T23:49:27.572Z,0.60
2023-02-06T23:51:59.522Z,0.60
2023-02-06T23:54:26.456Z,0.50
2023-02-06T23:56:58.177Z,0.50
2023-02-06T23:59:25.262Z,0.40
